| time (UTC) | temp C | wind direction | speed KPH | gust KPH | rain 1hr cm | rain 24hr cm | rain mn cm | humidity % | barometer mb |
| 20260906063030 | 21 | 131 | 4.8 | 8.0 | 0.00 | 0.00 | 0.00 | 42 | |
| 20260906062030 | 21 | 199 | 6.4 | 8.0 | 0.00 | 0.00 | 0.00 | 43 | |
| 20260906061030 | 20 | 162 | 4.8 | 4.8 | 0.00 | 0.00 | 0.00 | 44 | |
| 20260906060030 | 20 | 178 | 3.2 | 3.2 | 0.00 | 0.00 | 0.00 | 43 | |
| 20260906055031 | 20 | 142 | 3.2 | 3.2 | 0.00 | 0.00 | 0.00 | 44 | |
| 20260906054030 | 19 | 175 | 4.8 | 8.0 | 0.00 | 0.00 | 0.00 | 44 | |
| 20260906053030 | 19 | 202 | 8.0 | 8.0 | 0.00 | 0.00 | 0.00 | 42 | |
| 20260906052030 | 19 | 213 | 8.0 | 8.0 | 0.00 | 0.00 | 0.00 | 45 | |
| 20260906051030 | 19 | 202 | 8.0 | 8.0 | 0.00 | 0.00 | 0.00 | 45 | |
| 20260906050030 | 19 | 217 | 8.0 | 11.3 | 0.00 | 0.00 | 0.00 | 45 | |
| 20260906045030 | 19 | 206 | 9.7 | 11.3 | 0.00 | 0.00 | 0.00 | 45 | |
| 20260906044030 | 18 | 217 | 9.7 | 9.7 | 0.00 | 0.00 | 0.00 | 46 | |
| 20260906043030 | 18 | 224 | 8.0 | 9.7 | 0.00 | 0.00 | 0.00 | 45 | |
| 20260906042030 | 18 | 259 | 8.0 | 8.0 | 0.00 | 0.00 | 0.00 | 45 | |
| 20260906041030 | 19 | 219 | 9.7 | 9.7 | 0.00 | 0.00 | 0.00 | 46 | |
| 20260906040030 | 19 | 216 | 6.4 | 8.0 | 0.00 | 0.00 | 0.00 | 46 | |
| 20260906035030 | 19 | 207 | 6.4 | 9.7 | 0.00 | 0.00 | 0.00 | 46 | |
| 20260906034030 | 19 | 209 | 6.4 | 8.0 | 0.00 | 0.00 | 0.00 | 47 | |
| 20260906033030 | 19 | 192 | 4.8 | 9.7 | 0.00 | 0.00 | 0.00 | 47 | |
| 20260906032030 | 19 | 196 | 6.4 | 9.7 | 0.00 | 0.00 | 0.00 | 47 | |
| 20260906031030 | 19 | 200 | 3.2 | 3.2 | 0.00 | 0.00 | 0.00 | 48 | |
| 20260906030030 | 19 | 189 | 3.2 | 6.4 | 0.00 | 0.00 | 0.00 | 47 | |
| 20260906025030 | 19 | 200 | 3.2 | 4.8 | 0.00 | 0.00 | 0.00 | 47 | |
| 20260906024030 | 20 | 164 | 8.0 | 9.7 | 0.00 | 0.00 | 0.00 | 48 | |
| 20260906023030 | 19 | 147 | 6.4 | 6.4 | 0.00 | 0.00 | 0.00 | 49 | |
| 20260906022030 | 19 | 183 | 8.0 | 11.3 | 0.00 | 0.00 | 0.00 | 49 | |
| 20260906021030 | 19 | 188 | 8.0 | 11.3 | 0.00 | 0.00 | 0.00 | 50 | |
| 20260906020030 | 19 | 192 | 6.4 | 6.4 | 0.00 | 0.00 | 0.00 | 49 | |
| 20260906015030 | 20 | 168 | 8.0 | 11.3 | 0.00 | 0.00 | 0.00 | 47 | |
| 20260906014030 | 20 | 168 | 8.0 | 8.0 | 0.00 | 0.00 | 0.00 | 49 | |
| 20260906013030 | 20 | 203 | 8.0 | 8.0 | 0.00 | 0.00 | 0.00 | 47 | |
| 20260906012030 | 20 | 180 | 9.7 | 14.5 | 0.00 | 0.00 | 0.00 | 48 | |
| 20260906011030 | 20 | 173 | 9.7 | 17.7 | 0.00 | 0.00 | 0.00 | 50 | |
| 20260906010030 | 20 | 192 | 4.8 | 9.7 | 0.00 | 0.00 | 0.00 | 52 | |
| 20260906005030 | 20 | 234 | 1.6 | 1.6 | 0.00 | 0.00 | 0.00 | 54 | |
| 20260906004030 | 20 | 124 | 6.4 | 6.4 | 0.00 | 0.00 | 0.00 | 55 | |
| 20260906003030 | 20 | 212 | 3.2 | 3.2 | 0.00 | 0.00 | 0.00 | 52 | |
| 20260906002030 | 21 | 173 | 6.4 | 6.4 | 0.00 | 0.00 | 0.00 | 52 | |
| 20260906001030 | 21 | 204 | 8.0 | 11.3 | 0.00 | 0.00 | 0.00 | 51 | |
| 20260906000030 | 21 | 147 | 6.4 | 6.4 | 0.00 | 0.00 | 0.00 | 52 | |
| 20260905235030 | 22 | 159 | 6.4 | 8.0 | 0.00 | 0.00 | 0.00 | 47 | |
| 20260905233530 | 21 | 162 | 11.3 | 11.3 | 0.00 | 0.00 | 0.00 | 52 | |
| 20260905232530 | 22 | 210 | 4.8 | 9.7 | 0.00 | 0.00 | 0.00 | 51 | |
| 20260905231530 | 22 | 190 | 12.9 | 17.7 | 0.00 | 0.00 | 0.00 | 48 | |
| 20260905230530 | 22 | 162 | 8.0 | 9.7 | 0.00 | 0.00 | 0.00 | 45 | |
| 20260905225530 | 22 | 145 | 8.0 | 8.0 | 0.00 | 0.00 | 0.00 | 46 | |
| 20260905224530 | 22 | 227 | 11.3 | 16.1 | 0.00 | 0.00 | 0.00 | 48 | |
| 20260905223530 | 23 | 196 | 9.7 | 16.1 | 0.00 | 0.00 | 0.00 | 47 | |
| 20260905222530 | 23 | 161 | 8.0 | 8.0 | 0.00 | 0.00 | 0.00 | 48 | |
| 20260905221530 | 23 | 164 | 11.3 | 16.1 | 0.00 | 0.00 | 0.00 | 50 | |
| 20260905220530 | 23 | 172 | 8.0 | 14.5 | 0.00 | 0.00 | 0.00 | 50 | |
| 20260905215530 | 23 | 210 | 4.8 | 4.8 | 0.00 | 0.00 | 0.00 | 50 | |
| 20260905214530 | 23 | 196 | 6.4 | 9.7 | 0.00 | 0.00 | 0.00 | 51 | |
| 20260905213530 | 23 | 140 | 1.6 | 6.4 | 0.00 | 0.00 | 0.00 | 51 | |
| 20260905212530 | 23 | 220 | 0.0 | 1.6 | 0.00 | 0.00 | 0.00 | 50 | |
| 20260905211530 | 23 | 100 | 1.6 | 3.2 | 0.00 | 0.00 | 0.00 | 51 | |
| 20260905210530 | 23 | 179 | 9.7 | 19.3 | 0.00 | 0.00 | 0.00 | 54 | |
| 20260905205530 | 23 | 133 | 3.2 | 6.4 | 0.00 | 0.00 | 0.00 | 54 | |
| 20260905204530 | 23 | 145 | 3.2 | 3.2 | 0.00 | 0.00 | 0.00 | 51 | |
| 20260905203530 | 23 | 148 | 8.0 | 11.3 | 0.00 | 0.00 | 0.00 | 52 | |
| 20260905202530 | 23 | 171 | 3.2 | 8.0 | 0.00 | 0.00 | 0.00 | 51 | |
| 20260905201530 | 24 | 185 | 4.8 | 4.8 | 0.00 | 0.00 | 0.00 | 48 | |
| 20260905200530 | 25 | 173 | 6.4 | 14.5 | 0.00 | 0.00 | 0.00 | 47 | |
| 20260905195530 | 25 | 161 | 6.4 | 16.1 | 0.00 | 0.00 | 0.00 | 47 | |
| 20260905194530 | 25 | 172 | 14.5 | 16.1 | 0.00 | 0.00 | 0.00 | 48 | |
| 20260905193530 | 25 | 188 | 9.7 | 19.3 | 0.00 | 0.00 | 0.00 | 47 | |
| 20260905192530 | 25 | 233 | 11.3 | 16.1 | 0.00 | 0.00 | 0.00 | 46 | |
| 20260905191530 | 25 | 169 | 12.9 | 16.1 | 0.00 | 0.00 | 0.00 | 47 | |
| 20260905190530 | 25 | 176 | 14.5 | 22.5 | 0.00 | 0.00 | 0.00 | 47 | |
| 20260905185530 | 25 | 190 | 14.5 | 20.9 | 0.00 | 0.00 | 0.00 | 47 | |
| 20260905184530 | 26 | 166 | 12.9 | 20.9 | 0.00 | 0.00 | 0.00 | 47 | |
| 20260905183530 | 26 | 164 | 14.5 | 24.1 | 0.00 | 0.00 | 0.00 | 46 | |
| 20260905182530 | 26 | 165 | 14.5 | 24.1 | 0.00 | 0.00 | 0.00 | 46 | |
| 20260905181530 | 26 | 179 | 12.9 | 17.7 | 0.00 | 0.00 | 0.00 | 46 | |
| 20260905180530 | 26 | 180 | 12.9 | 12.9 | 0.00 | 0.00 | 0.00 | 44 | |
| 20260905175530 | 26 | 200 | 9.7 | 11.3 | 0.00 | 0.00 | 0.00 | 43 | |
| 20260905174530 | 26 | 186 | 9.7 | 14.5 | 0.00 | 0.00 | 0.00 | 43 | |
| 20260905173530 | 27 | 220 | 8.0 | 9.7 | 0.00 | 0.00 | 0.00 | 42 | |
| 20260905172530 | 27 | 157 | 9.7 | 9.7 | 0.00 | 0.00 | 0.00 | 42 | |
| 20260905171530 | 27 | 199 | 14.5 | 19.3 | 0.00 | 0.00 | 0.00 | 42 | |
| 20260905170530 | 27 | 196 | 16.1 | 20.9 | 0.00 | 0.00 | 0.00 | 43 | |
| 20260905165530 | 27 | 158 | 14.5 | 24.1 | 0.00 | 0.00 | 0.00 | 41 | |
| 20260905164530 | 27 | 185 | 14.5 | 19.3 | 0.00 | 0.00 | 0.00 | 42 | |
| 20260905163530 | 28 | 148 | 16.1 | 24.1 | 0.00 | 0.00 | 0.00 | 41 | |
| 20260905162530 | 28 | 140 | 16.1 | 16.1 | 0.00 | 0.00 | 0.00 | 39 | |
| 20260905161530 | 29 | 189 | 11.3 | 16.1 | 0.00 | 0.00 | 0.00 | 36 | |
| 20260905160530 | 29 | 185 | 19.3 | 19.3 | 0.00 | 0.00 | 0.00 | 34 | |
| 20260905155530 | 29 | 185 | 14.5 | 25.7 | 0.00 | 0.00 | 0.00 | 35 | |
| 20260905154530 | 30 | 251 | 11.3 | 16.1 | 0.00 | 0.00 | 0.00 | 36 | |
| 20260905153530 | 30 | 186 | 12.9 | 16.1 | 0.00 | 0.00 | 0.00 | 35 | |
| 20260905152530 | 30 | 197 | 19.3 | 24.1 | 0.00 | 0.00 | 0.00 | 33 | |
| 20260905151530 | 30 | 193 | 14.5 | 24.1 | 0.00 | 0.00 | 0.00 | 32 | |
| 20260905150530 | 30 | 217 | 11.3 | 16.1 | 0.00 | 0.00 | 0.00 | 31 | |
| 20260905145530 | 31 | 231 | 12.9 | 20.9 | 0.00 | 0.00 | 0.00 | 30 | |
| 20260905144530 | 31 | 179 | 8.0 | 8.0 | 0.00 | 0.00 | 0.00 | 30 | |
| 20260905143530 | 31 | 164 | 9.7 | 9.7 | 0.00 | 0.00 | 0.00 | 29 | |
| 20260905142530 | 31 | 197 | 9.7 | 16.1 | 0.00 | 0.00 | 0.00 | 28 | |
| 20260905141530 | 31 | 203 | 11.3 | 11.3 | 0.00 | 0.00 | 0.00 | 28 | |
| 20260905140530 | 31 | 141 | 9.7 | 16.1 | 0.00 | 0.00 | 0.00 | 27 | |
| 20260905135530 | 31 | 149 | 11.3 | 11.3 | 0.00 | 0.00 | 0.00 | 26 | |
| 20260905134530 | 31 | 182 | 9.7 | 9.7 | 0.00 | 0.00 | 0.00 | 26 | |
| 20260905133530 | 31 | 117 | 4.8 | 6.4 | 0.00 | 0.00 | 0.00 | 26 | |
| 20260905132530 | 31 | 121 | 9.7 | 9.7 | 0.00 | 0.00 | 0.00 | 25 | |
| 20260905131530 | 31 | 179 | 4.8 | 11.3 | 0.00 | 0.00 | 0.00 | 25 | |
| 20260905130530 | 31 | 192 | 12.9 | 20.9 | 0.00 | 0.00 | 0.00 | 26 | |
| 20260905125530 | 31 | 147 | 11.3 | 16.1 | 0.00 | 0.00 | 0.00 | 27 | |
| 20260905124530 | 31 | 200 | 4.8 | 6.4 | 0.00 | 0.00 | 0.00 | 27 | |
| 20260905123530 | 31 | 204 | 9.7 | 11.3 | 0.00 | 0.00 | 0.00 | 27 | |
| 20260905122530 | 30 | 213 | 4.8 | 8.0 | 0.00 | 0.00 | 0.00 | 27 | |
| 20260905121530 | 31 | 319 | 6.4 | 17.7 | 0.00 | 0.00 | 0.00 | 26 | |
| 20260905120530 | 30 | 159 | 6.4 | 6.4 | 0.00 | 0.00 | 0.00 | 26 | |
| 20260905115530 | 30 | 271 | 9.7 | 14.5 | 0.00 | 0.00 | 0.00 | 26 | |
| 20260905114530 | 30 | 204 | 6.4 | 6.4 | 0.00 | 0.00 | 0.00 | 26 | |
| 20260905113530 | 29 | 282 | 9.7 | 9.7 | 0.00 | 0.00 | 0.00 | 26 | |
| 20260905112530 | 30 | 17 | 3.2 | 3.2 | 0.00 | 0.00 | 0.00 | 26 | |
| 20260905111530 | 29 | 18 | 6.4 | 6.4 | 0.00 | 0.00 | 0.00 | 27 | |
| 20260905110530 | 29 | 288 | 3.2 | 3.2 | 0.00 | 0.00 | 0.00 | 27 | |
| 20260905105530 | 28 | 235 | 6.4 | 11.3 | 0.00 | 0.00 | 0.00 | 27 | |
| 20260905104530 | 28 | 247 | 6.4 | 6.4 | 0.00 | 0.00 | 0.00 | 27 | |
| 20260905103530 | 28 | 251 | 4.8 | 8.0 | 0.00 | 0.00 | 0.00 | 28 | |
| 20260905102530 | 28 | 293 | 3.2 | 11.3 | 0.00 | 0.00 | 0.00 | 28 | |
| 20260905101530 | 28 | 247 | 3.2 | 3.2 | 0.00 | 0.00 | 0.00 | 28 | |
| 20260905100530 | 28 | 238 | 8.0 | 8.0 | 0.00 | 0.00 | 0.00 | 29 | |
| 20260905095530 | 27 | 243 | 4.8 | 4.8 | 0.00 | 0.00 | 0.00 | 30 | |
| 20260905094530 | 27 | 18 | 4.8 | 6.4 | 0.00 | 0.00 | 0.00 | 30 | |
| 20260905093530 | 27 | 106 | 8.0 | 8.0 | 0.00 | 0.00 | 0.00 | 31 | |
| 20260905092530 | 26 | 111 | 6.4 | 6.4 | 0.00 | 0.00 | 0.00 | 31 | |
| 20260905091530 | 26 | 111 | 3.2 | 3.2 | 0.00 | 0.00 | 0.00 | 32 | |
| 20260905090530 | 26 | 152 | 4.8 | 4.8 | 0.00 | 0.00 | 0.00 | 33 | |
| 20260905085530 | 26 | 180 | 0.0 | 1.6 | 0.00 | 0.00 | 0.00 | 33 | |
| 20260905084530 | 25 | 234 | 1.6 | 4.8 | 0.00 | 0.00 | 0.00 | 35 | |
| 20260905083530 | 25 | 94 | 3.2 | 6.4 | 0.00 | 0.00 | 0.00 | 38 | |
| 20260905082530 | 24 | 87 | 3.2 | 4.8 | 0.00 | 0.00 | 0.00 | 39 | |
| 20260905081530 | 23 | 103 | 1.6 | 9.7 | 0.00 | 0.00 | 0.00 | 39 | |
| 20260905080530 | 23 | 145 | 3.2 | 3.2 | 0.00 | 0.00 | 0.00 | 42 | |
| 20260905075530 | 23 | 110 | 3.2 | 3.2 | 0.00 | 0.00 | 0.00 | 42 | |
| 20260905074530 | 22 | 305 | 1.6 | 1.6 | 0.00 | 0.00 | 0.00 | 44 | |
| 20260905073530 | 22 | 0.0 | 0.0 | 0.00 | 0.00 | 0.00 | 43 | ||
| 20260905072530 | 22 | 116 | 0.0 | 1.6 | 0.00 | 0.00 | 0.00 | 45 | |
| 20260905071530 | 21 | 116 | 0.0 | 3.2 | 0.00 | 0.00 | 0.00 | 47 | |
| 20260905070530 | 21 | 258 | 1.6 | 1.6 | 0.00 | 0.00 | 0.00 | 48 | |
| 20260905065530 | 20 | 110 | 4.8 | 4.8 | 0.00 | 0.00 | 0.00 | 51 |